Satellite Precipitation Estimates (TXUS20 KWBC)
Issued by NWS

Home | Current Version | Previous Version | Text Only | Print | Product List | Glossary On
Versions: 1 2 3 4 5 6 7 8 9 10 11 12 13
000
SPTD31 TTPP 211538 CCA
SPECI
TTCP 211532Z 10016KT 2000 SHRA VCSH BKN014 29/25 Q1013 NOSIG RMK
SHWRS TO ALL QUADS=



USA.gov is the U.S. government's official web portal to all federal, state and local government web resources and services.